createdAt,value
2023-01-22T00:00:06.750Z,103096.19
2023-01-22T00:02:42.035Z,103071.81
2023-01-22T00:05:09.817Z,103077.78
2023-01-22T00:07:36.418Z,103025.22
2023-01-22T00:10:03.014Z,103095.06
2023-01-22T00:12:29.884Z,103131.41
2023-01-22T00:14:56.495Z,103100.75
2023-01-22T00:17:23.534Z,103112.09
2023-01-22T00:19:50.114Z,103063.69
2023-01-22T00:22:16.616Z,103004.81
2023-01-22T00:24:43.518Z,103096.41
2023-01-22T00:27:10.352Z,103072.66
2023-01-22T00:29:36.952Z,103100.56
2023-01-22T00:32:03.981Z,103083.88
2023-01-22T00:34:30.874Z,103103.94
2023-01-22T00:36:58.127Z,103069.59
2023-01-22T00:39:24.865Z,103036.69
2023-01-22T00:41:52.027Z,103124.19
2023-01-22T00:44:18.746Z,103110.69
2023-01-22T00:46:45.369Z,103115.44
2023-01-22T00:49:12.624Z,103004.25
2023-01-22T00:51:39.548Z,103072.25
2023-01-22T00:54:06.553Z,103086.66
2023-01-22T00:56:33.611Z,103095.84
2023-01-22T00:59:00.228Z,103054.66
2023-01-22T01:01:26.973Z,103098.63
2023-01-22T01:03:53.648Z,103090.66
2023-01-22T01:06:22.289Z,103085.47
2023-01-22T01:08:50.077Z,103082.13
2023-01-22T01:11:22.314Z,103082.16
2023-01-22T01:13:50.231Z,103091.06
2023-01-22T01:16:23.658Z,103014.34
2023-01-22T01:18:50.435Z,103053.38
2023-01-22T01:21:17.984Z,103043.56
2023-01-22T01:23:45.359Z,102913.75
2023-01-22T01:26:14.033Z,102928.25
2023-01-22T01:28:41.724Z,103090.09
2023-01-22T01:31:11.108Z,103084.09
2023-01-22T01:33:38.133Z,103012.06
2023-01-22T01:36:07.595Z,103093.09
2023-01-22T01:38:34.349Z,103002.84
2023-01-22T01:41:01.209Z,103075.97
2023-01-22T01:43:28.339Z,103100.53
2023-01-22T01:45:57.562Z,102997.66
2023-01-22T01:48:31.537Z,103023.06
2023-01-22T01:51:07.425Z,103096.22
2023-01-22T01:53:34.765Z,102991.53
2023-01-22T01:56:05.463Z,103082.09
2023-01-22T01:58:35.829Z,103069.22
2023-01-22T02:01:10.260Z,103021.00
2023-01-22T02:03:39.105Z,102956.09
2023-01-22T02:06:09.205Z,103024.16
2023-01-22T02:08:36.068Z,103042.47
2023-01-22T02:11:03.579Z,103028.63
2023-01-22T02:13:33.866Z,103038.00
2023-01-22T02:16:00.754Z,102923.22
2023-01-22T02:18:27.725Z,102977.97
2023-01-22T02:21:00.005Z,103031.34
2023-01-22T02:23:30.023Z,103032.59
2023-01-22T02:25:58.157Z,102963.47
2023-01-22T02:28:24.988Z,103032.44
2023-01-22T02:30:54.130Z,103041.38
2023-01-22T02:33:20.757Z,103038.63
2023-01-22T02:35:47.322Z,102926.69
2023-01-22T02:38:14.177Z,103025.00
2023-01-22T02:40:49.094Z,103035.91
2023-01-22T02:43:18.985Z,103031.66
2023-01-22T02:45:45.750Z,103037.16
2023-01-22T02:48:12.941Z,103059.59
2023-01-22T02:50:39.700Z,102946.84
2023-01-22T02:53:06.383Z,102965.84
2023-01-22T02:55:34.041Z,103055.03
2023-01-22T02:58:00.631Z,103037.75
2023-01-22T03:00:27.279Z,103059.31
2023-01-22T03:02:55.230Z,103026.53
2023-01-22T03:05:21.787Z,103035.53
2023-01-22T03:07:48.457Z,103055.53
2023-01-22T03:10:18.507Z,102990.53
2023-01-22T03:13:05.871Z,102953.19
2023-01-22T03:15:51.652Z,103011.00
2023-01-22T03:18:37.607Z,103049.13
2023-01-22T03:21:16.402Z,103018.88
2023-01-22T03:23:45.802Z,103060.66
2023-01-22T03:26:12.497Z,103046.25
2023-01-22T03:28:39.352Z,103023.31
2023-01-22T03:31:07.749Z,103013.69
2023-01-22T03:33:35.260Z,103033.75
2023-01-22T03:36:08.456Z,103023.34
2023-01-22T03:38:36.687Z,103046.00
2023-01-22T03:41:11.257Z,102977.47
2023-01-22T03:43:41.796Z,102999.59
2023-01-22T03:46:14.933Z,103014.56
2023-01-22T03:48:43.903Z,102988.16
2023-01-22T03:51:15.585Z,103020.91
2023-01-22T03:53:44.093Z,102995.00
2023-01-22T03:56:12.880Z,103024.03
2023-01-22T03:58:39.485Z,102908.09
2023-01-22T04:01:10.130Z,102915.72
2023-01-22T04:03:37.147Z,102974.00
2023-01-22T04:06:06.815Z,103007.47
2023-01-22T04:08:35.501Z,102938.75
2023-01-22T04:11:03.343Z,103025.50
2023-01-22T04:13:32.039Z,102944.16
2023-01-22T04:15:59.518Z,103022.06
2023-01-22T04:18:44.787Z,102990.81
2023-01-22T04:21:25.147Z,102989.91
2023-01-22T04:23:53.817Z,102907.00
2023-01-22T04:26:20.307Z,102908.00
2023-01-22T04:28:47.730Z,102984.13
2023-01-22T04:31:15.056Z,102987.06
2023-01-22T04:33:44.911Z,102904.97
2023-01-22T04:36:21.491Z,102993.44
2023-01-22T04:38:48.084Z,102990.53
2023-01-22T04:41:14.704Z,103013.50
2023-01-22T04:43:41.392Z,102996.56
2023-01-22T04:46:08.286Z,103019.91
2023-01-22T04:48:35.027Z,102992.13
2023-01-22T04:51:01.699Z,102881.44
2023-01-22T04:53:30.587Z,102972.91
2023-01-22T04:55:57.309Z,102990.56
2023-01-22T04:58:25.195Z,102913.72
2023-01-22T05:00:56.189Z,102996.63
2023-01-22T05:03:23.426Z,103026.53
2023-01-22T05:05:50.529Z,103007.00
2023-01-22T05:08:18.056Z,102963.16
2023-01-22T05:10:45.306Z,102896.94
2023-01-22T05:13:17.775Z,103018.94
2023-01-22T05:15:44.357Z,102890.59
2023-01-22T05:18:12.778Z,102964.38
2023-01-22T05:20:46.424Z,103025.53
2023-01-22T05:23:13.544Z,102992.59
2023-01-22T05:25:48.244Z,103025.25
2023-01-22T05:28:16.405Z,103014.25
2023-01-22T05:31:10.924Z,103031.41
2023-01-22T05:33:57.865Z,103018.84
2023-01-22T05:36:24.575Z,102916.31
2023-01-22T05:38:53.879Z,102932.19
2023-01-22T05:41:21.068Z,103013.91
2023-01-22T05:43:48.375Z,103026.09
2023-01-22T05:46:19.755Z,103010.38
2023-01-22T05:48:49.159Z,102948.03
2023-01-22T05:51:20.784Z,103036.31
2023-01-22T05:53:47.398Z,102997.03
2023-01-22T05:56:15.174Z,103004.91
2023-01-22T05:58:41.737Z,103048.66
2023-01-22T06:01:09.396Z,103043.72
2023-01-22T06:03:41.122Z,103010.41
2023-01-22T06:06:10.683Z,102940.09
2023-01-22T06:08:37.732Z,103031.09
2023-01-22T06:11:05.644Z,103048.94
2023-01-22T06:13:33.820Z,103049.72
2023-01-22T06:16:09.907Z,103030.22
2023-01-22T06:18:55.084Z,103012.03
2023-01-22T06:21:24.757Z,102979.81
2023-01-22T06:23:52.041Z,102922.31
2023-01-22T06:26:18.696Z,102969.81
2023-01-22T06:28:46.490Z,103016.56
2023-01-22T06:31:14.056Z,103023.81
2023-01-22T06:33:41.500Z,102994.75
2023-01-22T06:36:09.005Z,102977.25
2023-01-22T06:38:37.073Z,103021.25
2023-01-22T06:41:05.359Z,102929.56
2023-01-22T06:43:32.808Z,103028.03
2023-01-22T06:45:59.531Z,102932.47
2023-01-22T06:48:47.059Z,102946.47
2023-01-22T06:51:14.686Z,102952.47
2023-01-22T06:53:41.419Z,102979.06
2023-01-22T06:56:09.081Z,102938.09
2023-01-22T06:58:35.711Z,102941.63
2023-01-22T07:01:03.104Z,103038.66
2023-01-22T07:03:29.949Z,103025.19
2023-01-22T07:05:58.966Z,103037.09
2023-01-22T07:08:28.140Z,103035.66
2023-01-22T07:10:54.738Z,103023.72
2023-01-22T07:13:21.527Z,102953.91
2023-01-22T07:15:48.220Z,103040.38
2023-01-22T07:18:15.629Z,102903.28
2023-01-22T07:20:42.500Z,103025.19
2023-01-22T07:23:09.542Z,103071.81
2023-01-22T07:25:36.218Z,103028.06
2023-01-22T07:28:03.561Z,102976.31
2023-01-22T07:30:30.683Z,103054.66
2023-01-22T07:33:04.174Z,102968.88
2023-01-22T07:35:31.347Z,103059.25
2023-01-22T07:37:59.179Z,102953.94
2023-01-22T07:40:26.572Z,103018.13
2023-01-22T07:42:54.406Z,103033.72
2023-01-22T07:45:24.680Z,103069.47
2023-01-22T07:47:56.851Z,103067.13
2023-01-22T07:50:25.819Z,103054.69
2023-01-22T07:52:52.965Z,102962.38
2023-01-22T07:55:19.611Z,103058.00
2023-01-22T07:57:46.307Z,102967.50
2023-01-22T08:00:15.756Z,103047.41
2023-01-22T08:02:42.821Z,102987.81
2023-01-22T08:05:13.235Z,103082.13
2023-01-22T08:07:39.857Z,103078.97
2023-01-22T08:10:07.059Z,102998.56
2023-01-22T08:12:33.704Z,103080.81
2023-01-22T08:15:00.351Z,102995.44
2023-01-22T08:17:26.918Z,103011.56
2023-01-22T08:19:53.607Z,103068.03
2023-01-22T08:22:20.617Z,103019.06
2023-01-22T08:24:47.173Z,103008.06
2023-01-22T08:27:13.893Z,103078.53
2023-01-22T08:29:40.461Z,102999.03
2023-01-22T08:32:07.172Z,103009.38
2023-01-22T08:34:33.826Z,103068.19
2023-01-22T08:37:00.430Z,103006.25
2023-01-22T08:39:26.945Z,102967.50
2023-01-22T08:41:57.467Z,103009.91
2023-01-22T08:44:24.685Z,102930.22
2023-01-22T08:46:51.685Z,103047.38
2023-01-22T08:49:18.451Z,103002.47
2023-01-22T08:51:45.112Z,102979.56
2023-01-22T08:54:11.620Z,103083.22
2023-01-22T08:56:38.201Z,103001.78
2023-01-22T08:59:06.324Z,103059.16
2023-01-22T09:01:34.155Z,103003.88
2023-01-22T09:04:00.925Z,103079.84
2023-01-22T09:06:27.507Z,103069.09
2023-01-22T09:08:55.280Z,103070.13
2023-01-22T09:11:21.935Z,102982.28
2023-01-22T09:13:48.419Z,103067.53
2023-01-22T09:16:15.026Z,103077.06
2023-01-22T09:18:41.588Z,103009.00
2023-01-22T09:21:08.449Z,103101.03
2023-01-22T09:23:34.986Z,103076.16
2023-01-22T09:26:02.019Z,103095.66
2023-01-22T09:28:28.629Z,103004.06
2023-01-22T09:30:55.298Z,103001.81
2023-01-22T09:33:21.898Z,103002.31
2023-01-22T09:35:48.529Z,103008.47
2023-01-22T09:38:15.816Z,103092.66
2023-01-22T09:40:48.482Z,103071.69
2023-01-22T09:43:29.998Z,103104.69
2023-01-22T09:46:01.725Z,103018.28
2023-01-22T09:48:39.934Z,103081.13
2023-01-22T09:51:06.855Z,103066.47
2023-01-22T09:53:34.860Z,103083.50
2023-01-22T09:56:06.011Z,103030.47
2023-01-22T09:58:35.047Z,103048.66
2023-01-22T10:01:04.590Z,103101.44
2023-01-22T10:03:44.069Z,103088.47
2023-01-22T10:06:14.034Z,103019.34
2023-01-22T10:09:19.460Z,103106.16
2023-01-22T10:11:51.794Z,103087.69
2023-01-22T10:14:21.464Z,103130.13
2023-01-22T10:16:49.143Z,103121.34
2023-01-22T10:19:36.902Z,103002.59
2023-01-22T10:22:10.924Z,103108.91
2023-01-22T10:24:37.475Z,103110.47
2023-01-22T10:27:16.819Z,103099.34
2023-01-22T10:29:46.316Z,103008.75
2023-01-22T10:32:21.362Z,102956.78
2023-01-22T10:35:21.195Z,103125.00
2023-01-22T10:37:52.930Z,103101.16
2023-01-22T10:40:35.738Z,103095.66
2023-01-22T10:43:11.162Z,103098.91
2023-01-22T10:45:39.126Z,103072.72
2023-01-22T10:48:15.674Z,103113.56
2023-01-22T10:50:43.410Z,103059.34
2023-01-22T10:53:21.112Z,103099.94
2023-01-22T10:55:56.599Z,103084.06
2023-01-22T10:58:26.090Z,103106.31
2023-01-22T11:01:04.284Z,103004.09
2023-01-22T11:03:36.908Z,103090.16
2023-01-22T11:06:18.571Z,103096.38
2023-01-22T11:08:52.554Z,103007.31
2023-01-22T11:11:26.016Z,102987.75
2023-01-22T11:14:04.369Z,103006.97
2023-01-22T11:16:35.977Z,103079.56
2023-01-22T11:19:21.661Z,103079.91
2023-01-22T11:21:56.383Z,103060.75
2023-01-22T11:24:47.318Z,103081.75
2023-01-22T11:27:14.276Z,103079.25
2023-01-22T11:29:49.713Z,102909.41
2023-01-22T11:32:52.885Z,103077.97
2023-01-22T11:35:28.419Z,103080.78
2023-01-22T11:38:10.062Z,103077.06
2023-01-22T11:40:48.413Z,103068.38
2023-01-22T11:43:32.453Z,103037.50
2023-01-22T11:46:05.075Z,103064.97
2023-01-22T11:48:34.581Z,103057.31
2023-01-22T11:51:40.679Z,103051.03
2023-01-22T11:54:42.465Z,103051.72
2023-01-22T11:57:24.470Z,102969.38
2023-01-22T12:00:10.216Z,103053.66
2023-01-22T12:03:04.675Z,103054.88
2023-01-22T12:05:43.694Z,103053.22
2023-01-22T12:08:19.175Z,103045.66
2023-01-22T12:11:11.206Z,103043.59
2023-01-22T12:13:49.785Z,103049.25
2023-01-22T12:16:27.845Z,103033.28
2023-01-22T12:19:03.258Z,103047.91
2023-01-22T12:21:40.354Z,103042.50
2023-01-22T12:24:23.662Z,102990.69
2023-01-22T12:27:02.608Z,103042.19
2023-01-22T12:30:14.417Z,103048.72
2023-01-22T12:32:45.350Z,103024.00
2023-01-22T12:35:17.363Z,102935.47
2023-01-22T12:37:54.848Z,103044.69
2023-01-22T12:40:31.820Z,102930.16
2023-01-22T12:43:03.889Z,103028.03
2023-01-22T12:45:37.597Z,102973.75
2023-01-22T12:48:20.539Z,102976.13
2023-01-22T12:50:53.223Z,102992.91
2023-01-22T12:53:26.707Z,103048.94
2023-01-22T12:56:01.040Z,103055.34
2023-01-22T12:58:30.341Z,103052.31
2023-01-22T13:01:08.983Z,103067.25
2023-01-22T13:03:36.918Z,103047.84
2023-01-22T13:06:17.537Z,103050.28
2023-01-22T13:08:54.607Z,103067.84
2023-01-22T13:11:31.153Z,103030.03
2023-01-22T13:14:14.721Z,103008.72
2023-01-22T13:16:51.809Z,103077.78
2023-01-22T13:19:26.323Z,102973.09
2023-01-22T13:21:53.555Z,103073.47
2023-01-22T13:24:21.493Z,102977.50
2023-01-22T13:26:58.364Z,102989.66
2023-01-22T13:29:34.032Z,103051.69
2023-01-22T13:32:06.390Z,102974.09
2023-01-22T13:34:32.967Z,103059.00
2023-01-22T13:36:59.503Z,103064.50
2023-01-22T13:39:29.663Z,103071.59
2023-01-22T13:42:05.723Z,103059.44
2023-01-22T13:44:41.493Z,102982.38
2023-01-22T13:47:08.103Z,103077.91
2023-01-22T13:49:42.369Z,102967.75
2023-01-22T13:52:19.088Z,103084.25
2023-01-22T13:55:08.360Z,103067.09
2023-01-22T13:57:34.885Z,103020.28
2023-01-22T14:00:03.741Z,103081.81
2023-01-22T14:02:35.119Z,103086.28
2023-01-22T14:05:02.100Z,103015.72
2023-01-22T14:07:34.228Z,103063.50
2023-01-22T14:10:16.364Z,103097.81
2023-01-22T14:12:43.151Z,103092.84
2023-01-22T14:15:15.358Z,103089.72
2023-01-22T14:17:42.020Z,102856.59
2023-01-22T14:20:09.392Z,103081.34
2023-01-22T14:22:35.960Z,103108.84
2023-01-22T14:25:02.657Z,103035.69
2023-01-22T14:27:40.768Z,103092.75
2023-01-22T14:30:08.812Z,103098.91
2023-01-22T14:32:35.273Z,103090.91
2023-01-22T14:35:01.878Z,103100.75
2023-01-22T14:37:28.436Z,103102.31
2023-01-22T14:39:54.940Z,103083.47
2023-01-22T14:42:24.973Z,103053.22
2023-01-22T14:44:51.454Z,103030.72
2023-01-22T14:47:17.934Z,103085.81
2023-01-22T14:49:44.411Z,103113.56
2023-01-22T14:52:10.908Z,103118.16
2023-01-22T14:54:37.467Z,103039.75
2023-01-22T14:57:04.130Z,103114.25
2023-01-22T14:59:30.723Z,103125.09
2023-01-22T15:01:57.295Z,103111.22
2023-01-22T15:04:23.842Z,103087.41
2023-01-22T15:06:50.326Z,103111.22
2023-01-22T15:09:16.773Z,103080.72
2023-01-22T15:11:43.284Z,103123.28
2023-01-22T15:14:10.039Z,103117.25
2023-01-22T15:16:38.324Z,103106.78
2023-01-22T15:19:04.846Z,103060.16
2023-01-22T15:21:31.418Z,103081.09
2023-01-22T15:23:57.903Z,103102.84
2023-01-22T15:26:24.461Z,103131.13
2023-01-22T15:28:51.027Z,103030.19
2023-01-22T15:31:17.586Z,103116.22
2023-01-22T15:33:44.124Z,103122.22
2023-01-22T15:36:10.720Z,103121.72
2023-01-22T15:38:37.233Z,103104.44
2023-01-22T15:41:17.485Z,103110.06
2023-01-22T15:43:44.143Z,103114.25
2023-01-22T15:46:10.770Z,103087.66
2023-01-22T15:48:38.178Z,103130.09
2023-01-22T15:51:09.787Z,103062.53
2023-01-22T15:53:36.992Z,103128.28
2023-01-22T15:56:04.127Z,103126.97
2023-01-22T15:58:31.893Z,103151.72
2023-01-22T16:00:58.729Z,103134.28
2023-01-22T16:03:25.261Z,103136.13
2023-01-22T16:05:51.776Z,103131.28
2023-01-22T16:08:18.252Z,103111.25
2023-01-22T16:10:44.718Z,103033.59
2023-01-22T16:13:11.170Z,103133.38
2023-01-22T16:15:37.702Z,103106.78
2023-01-22T16:18:04.284Z,103022.47
2023-01-22T16:20:30.756Z,103135.06
2023-01-22T16:22:57.281Z,103124.88
2023-01-22T16:25:23.909Z,103122.88
2023-01-22T16:27:50.496Z,103050.22
2023-01-22T16:30:17.740Z,103046.28
2023-01-22T16:32:46.065Z,103142.69
2023-01-22T16:35:12.640Z,103102.88
2023-01-22T16:37:39.247Z,103136.13
2023-01-22T16:40:07.296Z,103138.34
2023-01-22T16:42:35.679Z,103144.50
2023-01-22T16:45:02.423Z,103051.78
2023-01-22T16:47:28.909Z,103153.69
2023-01-22T16:49:55.406Z,103133.50
2023-01-22T16:52:23.162Z,103097.09
2023-01-22T16:54:50.379Z,103135.88
2023-01-22T16:57:19.251Z,103145.44
2023-01-22T16:59:46.151Z,103109.41
2023-01-22T17:02:14.983Z,103155.00
2023-01-22T17:04:41.676Z,103125.66
2023-01-22T17:07:15.330Z,102976.69
2023-01-22T17:09:47.530Z,103140.06
2023-01-22T17:12:14.119Z,103149.09
2023-01-22T17:14:40.988Z,103167.97
2023-01-22T17:17:08.716Z,103146.22
2023-01-22T17:19:36.268Z,103157.09
2023-01-22T17:22:03.285Z,103087.94
2023-01-22T17:24:31.061Z,103083.09
2023-01-22T17:26:58.234Z,103080.22
2023-01-22T17:29:24.924Z,103037.56
2023-01-22T17:31:52.261Z,103162.09
2023-01-22T17:34:19.024Z,103063.97
2023-01-22T17:36:45.564Z,103173.88
2023-01-22T17:39:15.766Z,103151.06
2023-01-22T17:41:43.325Z,103084.78
2023-01-22T17:44:10.543Z,103161.28
2023-01-22T17:46:37.292Z,103129.47
2023-01-22T17:49:04.768Z,103095.13
2023-01-22T17:51:33.661Z,103162.06
2023-01-22T17:54:02.136Z,103051.66
2023-01-22T17:56:34.662Z,103060.69
2023-01-22T17:59:03.875Z,103073.00
2023-01-22T18:01:32.415Z,103182.78
2023-01-22T18:04:02.769Z,103167.84
2023-01-22T18:06:29.670Z,103154.88
2023-01-22T18:08:57.428Z,103169.69
2023-01-22T18:11:29.833Z,103182.25
2023-01-22T18:14:15.714Z,103172.31
2023-01-22T18:16:42.432Z,103080.88
2023-01-22T18:19:09.509Z,103161.81
2023-01-22T18:21:38.269Z,103109.94
2023-01-22T18:24:06.832Z,103164.84
2023-01-22T18:26:34.391Z,103184.75
2023-01-22T18:29:01.426Z,103102.22
2023-01-22T18:31:29.662Z,103151.06
2023-01-22T18:34:00.665Z,103031.53
2023-01-22T18:36:29.893Z,103095.41
2023-01-22T18:39:03.577Z,103108.75
2023-01-22T18:41:30.903Z,103202.19
2023-01-22T18:43:59.708Z,103098.81
2023-01-22T18:46:33.166Z,103184.50
2023-01-22T18:49:02.064Z,103191.69
2023-01-22T18:51:29.651Z,103193.66
2023-01-22T18:53:56.966Z,103164.31
2023-01-22T18:56:25.587Z,103193.00
2023-01-22T18:58:56.303Z,103210.56
2023-01-22T19:01:25.974Z,103117.53
2023-01-22T19:04:04.255Z,103176.50
2023-01-22T19:06:35.145Z,103156.97
2023-01-22T19:09:13.861Z,103204.28
2023-01-22T19:11:46.999Z,103105.22
2023-01-22T19:14:16.693Z,103186.19
2023-01-22T19:16:44.919Z,103121.72
2023-01-22T19:19:13.516Z,103193.66
2023-01-22T19:21:48.725Z,103201.41
2023-01-22T19:24:19.294Z,103120.94
2023-01-22T19:26:46.836Z,103128.28
2023-01-22T19:29:17.461Z,103190.25
2023-01-22T19:31:48.400Z,103201.66
2023-01-22T19:34:23.492Z,103214.63
2023-01-22T19:36:52.958Z,103168.63
2023-01-22T19:39:20.265Z,103139.53
2023-01-22T19:41:47.363Z,103190.25
2023-01-22T19:44:14.021Z,103186.19
2023-01-22T19:46:40.881Z,103203.22
2023-01-22T19:49:07.837Z,103100.50
2023-01-22T19:51:34.865Z,103196.94
2023-01-22T19:54:02.443Z,103216.88
2023-01-22T19:56:33.518Z,103172.03
2023-01-22T19:59:03.337Z,103202.19
2023-01-22T20:01:30.172Z,103213.31
2023-01-22T20:03:56.733Z,103116.22
2023-01-22T20:06:23.881Z,103203.50
2023-01-22T20:08:51.369Z,103214.50
2023-01-22T20:11:18.602Z,103206.00
2023-01-22T20:13:45.265Z,103223.56
2023-01-22T20:16:22.646Z,103248.31
2023-01-22T20:18:50.214Z,103194.31
2023-01-22T20:21:18.270Z,103228.53
2023-01-22T20:23:46.685Z,103223.56
2023-01-22T20:26:14.607Z,103250.16
2023-01-22T20:28:41.560Z,103126.06
2023-01-22T20:31:12.811Z,103171.00
2023-01-22T20:33:39.515Z,103159.06
2023-01-22T20:36:11.729Z,103213.47
2023-01-22T20:38:38.257Z,103246.63
2023-01-22T20:41:09.158Z,103256.84
2023-01-22T20:43:40.624Z,103194.72
2023-01-22T20:46:13.429Z,103255.00
2023-01-22T20:48:40.851Z,103148.72
2023-01-22T20:51:15.296Z,103251.72
2023-01-22T20:53:42.729Z,103177.28
2023-01-22T20:56:13.714Z,103266.28
2023-01-22T20:58:40.945Z,103265.63
2023-01-22T21:01:16.710Z,103264.56
2023-01-22T21:03:44.047Z,103232.34
2023-01-22T21:06:14.178Z,103162.72
2023-01-22T21:08:42.121Z,103225.50
2023-01-22T21:11:11.604Z,103170.72
2023-01-22T21:13:38.405Z,103255.91
2023-01-22T21:16:10.163Z,103230.38
2023-01-22T21:18:41.334Z,103187.91
2023-01-22T21:21:08.895Z,103232.19
2023-01-22T21:23:37.227Z,103252.78
2023-01-22T21:26:05.661Z,103182.25
2023-01-22T21:28:33.091Z,103239.41
2023-01-22T21:31:20.392Z,103246.50
2023-01-22T21:33:48.683Z,103244.66
2023-01-22T21:36:18.232Z,103232.84
2023-01-22T21:38:47.420Z,103179.38
2023-01-22T21:41:16.599Z,103169.41
2023-01-22T21:44:03.896Z,103255.66
2023-01-22T21:46:39.311Z,103265.75
2023-01-22T21:49:16.746Z,103188.41
2023-01-22T21:51:55.763Z,103174.28
2023-01-22T21:54:29.738Z,103271.00
2023-01-22T21:56:56.829Z,103229.72
2023-01-22T21:59:23.569Z,103252.00
2023-01-22T22:01:52.110Z,103238.63
2023-01-22T22:04:19.180Z,103257.25
2023-01-22T22:06:45.715Z,103172.31
2023-01-22T22:09:16.051Z,103248.19
2023-01-22T22:11:43.344Z,103255.78
2023-01-22T22:14:17.823Z,103279.78
2023-01-22T22:16:44.659Z,103259.34
2023-01-22T22:19:11.851Z,103052.94
2023-01-22T22:21:38.777Z,103280.56
2023-01-22T22:24:05.799Z,103248.59
2023-01-22T22:26:32.906Z,103260.13
2023-01-22T22:28:59.436Z,103251.88
2023-01-22T22:31:26.211Z,103196.94
2023-01-22T22:33:55.345Z,103248.31
2023-01-22T22:36:24.480Z,103194.69
2023-01-22T22:38:51.552Z,103166.41
2023-01-22T22:41:24.024Z,103248.59
2023-01-22T22:43:52.992Z,103281.75
2023-01-22T22:46:30.328Z,103112.53
2023-01-22T22:48:59.644Z,103294.63
2023-01-22T22:51:32.045Z,103215.81
2023-01-22T22:54:02.542Z,103209.53
2023-01-22T22:56:29.881Z,103280.44
2023-01-22T22:58:59.275Z,103292.38
2023-01-22T23:01:26.885Z,103288.72
2023-01-22T23:03:53.905Z,103273.75
2023-01-22T23:06:24.394Z,103300.25
2023-01-22T23:08:53.548Z,103176.47
2023-01-22T23:11:22.988Z,103288.97
2023-01-22T23:13:50.579Z,103298.56
2023-01-22T23:16:19.618Z,103274.28
2023-01-22T23:18:48.286Z,103303.94
2023-01-22T23:21:17.843Z,103217.91
2023-01-22T23:23:45.289Z,103303.13
2023-01-22T23:26:17.634Z,103259.34
2023-01-22T23:28:44.562Z,103181.72
2023-01-22T23:31:14.642Z,103304.44
2023-01-22T23:33:41.732Z,103293.97
2023-01-22T23:36:11.316Z,103230.22
2023-01-22T23:38:38.688Z,103266.69
2023-01-22T23:41:09.285Z,103292.50
2023-01-22T23:43:36.209Z,103262.63
2023-01-22T23:46:07.644Z,103275.72
2023-01-22T23:48:34.427Z,103299.19
2023-01-22T23:51:01.216Z,103302.63
2023-01-22T23:53:28.250Z,103281.09
2023-01-22T23:56:01.811Z,103284.00
2023-01-22T23:58:28.759Z,103298.53
